Owasco, New York
Current Conditions -  °F | °C
As of 3:54 PM on Saturday 20 Dec 2014 (Local Time) from KSYR Reporting Station
Scattered Clouds Scattered Clouds  
Wind Chill: 22°   Ceiling: Unl
Heat Index: 27°   Visibility: 10mi
Dew Point: 20°   Wind: 5mph
Humidity: 75%   Direction: 40°NE
Pressure: 30.26"   Gusts: NA
Location:  42.9235°N, 76.5525°W
Report Text: KSYR 202054Z 04004KT 10SM FEW020 SCT200 M03/M07 A3026 RMK AO2 SLP250 T10281067 55006
Loading
Personal Weather Stations






























Interactive Weather Map New forecast layout! Learn more

10-Day Weather Forecast

Advertisements
Track Severe Weather on mobile